Time;durP1;ratioP1;P1;durP2;ratioP2;P2;SDS_P1;SDS_P2;PMS_P1;PMS_P2;Temp;Humidity;BMP_temperature;BMP_pressure;BME280_temperature;BME280_humidity;BME280_pressure;Samples;Min_cycle;Max_cycle;Signal;HPM_P1;HPM_P2
2022/05/04 00:02:20;;;;;;;13.63;5.82;;;;;;;11.17;56.79;101834.78;5053787;28;20097;-64
2022/05/04 00:04:45;;;;;;;11.15;5.65;;;;;;;11.22;56.94;101833.63;5053702;28;20115;-63
2022/05/04 00:07:11;;;;;;;15.80;6.90;;;;;;;11.16;57.15;101835.72;5053387;28;20037;-64
2022/05/04 00:09:37;;;;;;;9.70;5.63;;;;;;;11.17;56.74;101834.78;5071372;28;20092;-64
2022/05/04 00:12:06;;;;;;;15.52;7.03;;;;;;;11.08;57.37;101838.75;5058970;28;20494;-64
2022/05/04 00:14:32;;;;;;;14.18;5.93;;;;;;;11.00;57.54;101839.16;5072149;28;20115;-64
2022/05/04 00:16:58;;;;;;;15.90;6.60;;;;;;;10.92;57.81;101830.69;5087245;28;20025;-63
2022/05/04 00:19:24;;;;;;;12.00;5.85;;;;;;;10.94;57.57;101842.09;5069738;28;20031;-64
2022/05/04 00:21:49;;;;;;;16.20;6.90;;;;;;;11.02;57.53;101839.91;5069878;28;20040;-64
2022/05/04 00:24:19;;;;;;;12.15;6.07;;;;;;;10.96;57.20;101840.22;5054857;28;20048;-63
2022/05/04 00:26:45;;;;;;;13.40;5.75;;;;;;;11.14;57.10;101835.78;5070582;28;20383;-63
2022/05/04 00:29:13;;;;;;;10.55;6.30;;;;;;;11.13;57.22;101839.41;5070054;28;20020;-63
2022/05/04 00:31:41;;;;;;;12.52;6.30;;;;;;;11.05;57.44;101834.44;5071846;28;20450;-64
2022/05/04 00:34:08;;;;;;;12.07;6.88;;;;;;;11.01;57.84;101832.03;5070939;28;20028;-64
2022/05/04 00:36:36;;;;;;;13.38;7.13;;;;;;;10.98;57.41;101832.19;5069231;28;20062;-64
2022/05/04 00:39:01;;;;;;;16.35;6.50;;;;;;;10.96;57.83;101842.03;5070373;28;20422;-63
2022/05/04 00:41:27;;;;;;;15.90;6.63;;;;;;;10.92;57.99;101836.00;5070114;28;20480;-63
2022/05/04 00:43:54;;;;;;;15.40;6.88;;;;;;;10.99;57.65;101836.56;5070673;28;20099;-63
2022/05/04 00:46:20;;;;;;;19.73;6.97;;;;;;;10.94;58.19;101838.56;5071717;28;20048;-64
2022/05/04 00:48:46;;;;;;;17.13;7.85;;;;;;;10.90;58.47;101827.22;5070886;28;20028;-64
2022/05/04 00:51:12;;;;;;;14.25;6.93;;;;;;;10.90;58.11;101822.75;5068841;28;20036;-63
2022/05/04 00:53:40;;;;;;;14.50;7.43;;;;;;;10.91;58.48;101824.50;5071311;28;20028;-63
2022/05/04 00:56:08;;;;;;;14.20;7.53;;;;;;;10.93;58.27;101827.06;5070299;28;20016;-64
2022/05/04 01:01:20;;;;;;;15.23;6.82;;;;;;;11.03;58.47;101830.13;5070116;28;20114;-64
2022/05/04 01:03:48;;;;;;;14.27;7.75;;;;;;;10.98;58.67;101835.69;5070026;28;20032;-64
2022/05/04 01:06:13;;;;;;;17.45;8.00;;;;;;;11.04;58.40;101827.41;5068018;28;20549;-63
2022/05/04 01:08:38;;;;;;;14.13;8.20;;;;;;;10.96;59.25;101826.06;5070155;28;20024;-64
2022/05/04 01:11:04;;;;;;;16.20;8.07;;;;;;;10.88;59.73;101823.75;5070412;28;20020;-64
2022/05/04 01:13:31;;;;;;;12.35;7.47;;;;;;;10.86;59.98;101823.84;5071262;28;20032;-64
2022/05/04 01:15:56;;;;;;;12.55;7.25;;;;;;;10.93;59.21;101824.41;5071035;28;20491;-63
2022/05/04 01:18:23;;;;;;;13.32;7.53;;;;;;;11.03;58.84;101832.78;5068519;28;20111;-63
2022/05/04 01:20:49;;;;;;;15.23;7.97;;;;;;;11.05;58.94;101825.59;5068598;28;20145;-64
2022/05/04 01:23:16;;;;;;;12.45;7.57;;;;;;;11.04;59.31;101830.06;5069446;28;20016;-64
2022/05/04 01:25:45;;;;;;;17.73;7.00;;;;;;;11.08;59.34;101836.09;5069507;28;20094;-64
2022/05/04 01:28:10;;;;;;;15.77;7.30;;;;;;;11.05;58.85;101831.78;5069418;28;20024;-64
2022/05/04 01:30:36;;;;;;;12.50;7.97;;;;;;;11.07;58.83;101827.25;5068582;28;20071;-63
2022/05/04 01:33:02;;;;;;;11.73;6.35;;;;;;;11.03;59.05;101828.34;5084853;28;20036;-63
2022/05/04 01:35:28;;;;;;;13.32;7.95;;;;;;;10.85;59.91;101814.16;5068534;28;20025;-64
2022/05/04 01:37:54;;;;;;;12.02;7.10;;;;;;;10.89;59.72;101822.84;5073146;28;20035;-64
2022/05/04 01:40:20;;;;;;;12.35;7.43;;;;;;;10.82;59.68;101814.25;5060591;28;20435;-64
2022/05/04 01:42:46;;;;;;;15.77;7.18;;;;;;;10.84;59.27;101819.53;5069820;28;20031;-64
2022/05/04 01:45:11;;;;;;;14.27;7.40;;;;;;;10.88;59.59;101824.66;5069138;28;20111;-64
2022/05/04 01:47:48;;;;;;;13.65;7.47;;;;;;;10.93;59.22;101821.75;5052358;28;20025;-63
2022/05/04 01:50:14;;;;;;;12.27;7.20;;;;;;;11.05;58.90;101822.94;5069375;28;20116;-63
2022/05/04 01:52:39;;;;;;;18.33;7.85;;;;;;;11.04;59.15;101827.41;5069108;28;20162;-64
2022/05/04 01:55:06;;;;;;;15.13;7.45;;;;;;;11.07;58.70;101829.91;5069145;28;20029;-63
2022/05/04 01:57:32;;;;;;;14.85;6.95;;;;;;;11.08;58.92;101807.66;5052918;28;20037;-63
2022/05/04 01:59:58;;;;;;;15.07;7.13;;;;;;;11.10;58.57;101826.25;5067761;28;20044;-64
2022/05/04 02:02:26;;;;;;;12.15;7.20;;;;;;;11.08;58.91;101818.31;5070435;28;20391;-63
2022/05/04 02:04:54;;;;;;;17.90;7.25;;;;;;;11.03;59.07;101820.38;5068249;28;20501;-64
2022/05/04 02:07:20;;;;;;;12.85;6.88;;;;;;;11.02;58.63;101817.75;5072999;28;20560;-63
2022/05/04 02:09:46;;;;;;;10.65;6.70;;;;;;;10.95;59.70;101821.69;5072958;28;20024;-64
2022/05/04 02:12:12;;;;;;;16.00;7.05;;;;;;;11.04;59.10;101822.06;5072163;28;20514;-63
2022/05/04 02:14:38;;;;;;;15.75;7.30;;;;;;;10.91;59.46;101821.84;5057382;28;20051;-64
2022/05/04 02:17:05;;;;;;;13.07;6.82;;;;;;;10.86;59.59;101818.53;5074124;28;20119;-64
2022/05/04 02:19:30;;;;;;;12.35;7.25;;;;;;;10.81;59.60;101814.34;5081368;28;20107;-63
2022/05/04 02:21:56;;;;;;;14.10;6.93;;;;;;;10.86;58.98;101815.00;5080204;28;20112;-63
2022/05/04 02:24:21;;;;;;;12.23;6.82;;;;;;;10.90;58.93;101813.91;5070836;28;20028;-63
2022/05/04 02:26:47;;;;;;;14.23;7.07;;;;;;;10.91;58.96;101812.97;5072061;28;20391;-64
2022/05/04 02:29:12;;;;;;;12.75;6.97;;;;;;;10.85;59.13;101810.59;5055051;28;20031;-64
2022/05/04 02:31:38;;;;;;;15.25;7.15;;;;;;;10.92;59.12;101812.03;5074562;28;20028;-64
2022/05/04 02:34:04;;;;;;;11.00;7.10;;;;;;;10.73;59.54;101798.75;5088485;28;20379;-64
2022/05/04 02:39:15;;;;;;;12.60;7.40;;;;;;;10.72;59.90;101806.81;5057222;28;20063;-63
2022/05/04 02:41:41;;;;;;;23.90;7.53;;;;;;;10.78;59.71;101809.19;5072585;28;20048;-63
2022/05/04 02:44:09;;;;;;;15.88;7.35;;;;;;;10.67;59.63;101805.22;5088462;28;20116;-64
2022/05/04 02:46:37;;;;;;;12.30;7.38;;;;;;;10.77;59.40;101808.31;5072926;28;20024;-64
2022/05/04 02:49:03;;;;;;;15.68;7.75;;;;;;;10.66;59.51;101806.19;5071636;28;20052;-64
2022/05/04 02:51:29;;;;;;;13.60;7.00;;;;;;;10.56;59.85;101799.59;5055196;28;20474;-64
2022/05/04 02:53:55;;;;;;;17.92;7.10;;;;;;;10.62;59.90;101803.75;5071602;28;20032;-63
2022/05/04 02:56:21;;;;;;;13.43;6.95;;;;;;;10.62;59.55;101795.78;5073242;28;20491;-64
2022/05/04 02:58:51;;;;;;;16.42;7.07;;;;;;;10.65;59.77;101798.28;5070526;28;20029;-63
2022/05/04 03:04:07;;;;;;;15.23;7.43;;;;;;;10.41;59.75;101785.22;5068870;28;20043;-63
2022/05/04 03:06:41;;;;;;;12.77;6.20;;;;;;;10.48;59.66;101799.06;5054805;28;20032;-63
2022/05/04 03:09:09;;;;;;;12.30;7.10;;;;;;;10.48;59.82;101785.78;5072081;28;20024;-63
2022/05/04 03:14:20;;;;;;;13.15;7.13;;;;;;;10.42;59.82;101789.59;5071843;28;20109;-63
2022/05/04 03:16:46;;;;;;;14.70;7.13;;;;;;;10.39;60.01;101794.19;5070767;28;20545;-64
2022/05/04 03:19:14;;;;;;;12.15;7.45;;;;;;;10.44;60.10;101782.41;5071465;28;20017;-64
2022/05/04 03:21:43;;;;;;;12.20;6.93;;;;;;;10.46;60.08;101791.16;5069870;28;20067;-63
2022/05/04 03:24:09;;;;;;;12.07;7.20;;;;;;;10.42;60.04;101786.94;5071674;28;20441;-64
2022/05/04 03:26:35;;;;;;;15.45;6.90;;;;;;;10.33;59.97;101782.06;5069637;28;20135;-63
2022/05/04 03:29:01;;;;;;;15.90;7.15;;;;;;;10.51;59.79;101785.63;5070309;28;20012;-63
2022/05/04 03:31:27;;;;;;;15.27;7.03;;;;;;;10.38;59.93;101784.47;5069930;28;20511;-64
2022/05/04 03:33:53;;;;;;;17.55;7.35;;;;;;;10.25;59.91;101778.84;5071534;28;20098;-63
2022/05/04 03:36:19;;;;;;;12.82;6.78;;;;;;;10.19;60.26;101789.78;5087941;28;20472;-64
2022/05/04 03:38:45;;;;;;;13.93;7.53;;;;;;;10.27;60.39;101784.16;5071696;28;20055;-63
2022/05/04 03:41:11;;;;;;;14.55;7.32;;;;;;;10.25;60.30;101797.47;5072006;28;20127;-63
2022/05/04 03:43:36;;;;;;;14.50;7.43;;;;;;;10.11;60.79;101786.59;5071230;28;20036;-63
2022/05/04 03:46:15;;;;;;;15.75;7.38;;;;;;;10.12;60.76;101788.34;5070242;28;20110;-63
2022/05/04 03:48:43;;;;;;;13.65;7.47;;;;;;;10.01;60.66;101783.50;5071998;28;20028;-63
2022/05/04 03:51:09;;;;;;;11.52;7.45;;;;;;;10.10;60.30;101791.06;5070339;28;20551;-63
2022/05/04 03:53:38;;;;;;;15.98;7.28;;;;;;;10.16;60.03;101787.25;5071531;28;20488;-63
2022/05/04 03:56:04;;;;;;;14.35;7.05;;;;;;;10.23;59.84;101784.25;5070071;28;20039;-63
2022/05/04 03:58:33;;;;;;;17.15;7.90;;;;;;;10.15;60.59;101785.53;5054467;28;20063;-63
2022/05/04 04:00:59;;;;;;;16.30;6.82;;;;;;;10.16;60.01;101780.13;5069851;28;20098;-64
2022/05/04 04:03:26;;;;;;;15.13;6.95;;;;;;;10.15;60.28;101781.09;5070479;28;20072;-63
2022/05/04 04:05:52;;;;;;;12.90;7.57;;;;;;;10.19;60.53;101785.31;5070656;28;20389;-63
2022/05/04 04:08:17;;;;;;;16.65;7.50;;;;;;;10.08;61.00;101781.44;5072085;28;20028;-63
2022/05/04 04:10:43;;;;;;;15.52;7.32;;;;;;;10.00;60.77;101790.63;5070208;28;20033;-64
2022/05/04 04:13:09;;;;;;;11.63;6.70;;;;;;;9.89;60.89;101773.44;5071136;28;20047;-63
2022/05/04 04:15:37;;;;;;;15.18;7.53;;;;;;;9.91;60.96;101788.38;5070533;28;20052;-63
2022/05/04 04:18:03;;;;;;;16.88;7.10;;;;;;;9.95;60.89;101786.44;5072012;28;20058;-63
2022/05/04 04:23:12;;;;;;;18.73;7.38;;;;;;;10.07;60.88;101787.69;5072339;28;20117;-63
2022/05/04 04:25:38;;;;;;;15.90;7.65;;;;;;;9.92;61.09;101781.28;5071545;28;20483;-63
2022/05/04 04:28:04;;;;;;;13.00;7.60;;;;;;;9.94;60.78;101774.06;5071591;28;20557;-63
2022/05/04 04:30:30;;;;;;;12.35;7.13;;;;;;;9.98;60.85;101781.84;5071482;28;20021;-64
2022/05/04 04:32:56;;;;;;;16.30;7.65;;;;;;;9.81;61.21;101780.88;5074850;28;20513;-64
2022/05/04 04:35:23;;;;;;;13.95;7.65;;;;;;;9.79;61.49;101786.25;5067550;28;20029;-64
2022/05/04 04:37:48;;;;;;;14.82;7.82;;;;;;;9.82;61.72;101780.81;5072135;28;20299;-63
2022/05/04 04:40:14;;;;;;;14.43;8.00;;;;;;;9.63;61.92;101783.44;5072201;28;20028;-63
2022/05/04 04:42:40;;;;;;;24.60;8.93;;;;;;;9.69;61.78;101798.25;5071361;28;20525;-63
2022/05/04 04:45:06;;;;;;;14.00;7.90;;;;;;;9.59;62.35;101788.94;5069559;28;20115;-63
2022/05/04 04:47:32;;;;;;;12.05;8.25;;;;;;;9.58;62.56;101793.38;5069615;28;20460;-63
2022/05/04 04:50:00;;;;;;;18.38;8.45;;;;;;;9.68;61.99;101797.38;5069253;28;20127;-63
2022/05/04 04:52:26;;;;;;;12.18;8.50;;;;;;;9.65;62.43;101797.50;5072238;28;20051;-64
2022/05/04 04:54:51;;;;;;;18.98;7.93;;;;;;;9.75;61.89;101790.00;5069581;28;20482;-63
2022/05/04 04:57:18;;;;;;;13.65;7.55;;;;;;;9.79;61.62;101788.91;5068928;28;20037;-63
2022/05/04 04:59:43;;;;;;;14.65;7.70;;;;;;;9.82;61.38;101785.25;5069479;28;20454;-63
2022/05/04 05:02:09;;;;;;;18.65;8.10;;;;;;;9.76;61.77;101791.72;5070739;28;20043;-63
2022/05/04 05:04:35;;;;;;;13.85;8.25;;;;;;;9.81;61.85;101791.50;5071074;28;20029;-63
2022/05/04 05:07:00;;;;;;;13.07;7.85;;;;;;;9.76;61.90;101787.28;5084001;28;20101;-63
2022/05/04 05:09:25;;;;;;;13.98;7.80;;;;;;;9.82;61.44;101790.56;5085463;28;20023;-64
2022/05/04 05:11:51;;;;;;;18.35;7.68;;;;;;;9.77;61.45;101799.63;5068311;28;20123;-64
2022/05/04 05:17:02;;;;;;;16.92;8.52;;;;;;;9.86;60.77;101798.34;5070607;28;20055;-63
2022/05/04 05:19:27;;;;;;;16.55;8.25;;;;;;;9.78;61.57;101796.03;5070090;28;20021;-63
2022/05/04 05:21:53;;;;;;;15.90;7.95;;;;;;;9.77;61.15;101796.13;5069185;28;20480;-63
2022/05/04 05:24:18;;;;;;;13.50;8.70;;;;;;;9.70;61.23;101802.59;5071227;28;20025;-64
2022/05/04 05:26:44;;;;;;;16.55;8.07;;;;;;;9.84;61.43;101810.84;5069614;28;20554;-63
2022/05/04 05:29:09;;;;;;;17.58;8.80;;;;;;;9.95;60.73;101805.06;5084984;28;20028;-63
2022/05/04 05:31:34;;;;;;;17.10;9.05;;;;;;;10.04;60.36;101801.97;5070044;28;20131;-64
2022/05/04 05:34:00;;;;;;;17.42;8.57;;;;;;;10.14;60.58;101808.56;5069435;28;20033;-63
2022/05/04 05:36:25;;;;;;;14.55;8.05;;;;;;;10.16;60.20;101801.41;5086707;28;20054;-63
2022/05/04 05:38:51;;;;;;;13.00;7.82;;;;;;;10.18;59.69;101804.88;5086206;28;20036;-63
2022/05/04 05:41:17;;;;;;;15.10;8.07;;;;;;;10.21;59.75;101798.56;5071576;28;20036;-64
2022/05/04 05:43:42;;;;;;;15.52;8.48;;;;;;;10.20;60.07;101797.66;5073274;28;20032;-64
2022/05/04 05:46:07;;;;;;;12.60;8.45;;;;;;;10.35;59.54;101806.78;5065079;28;20044;-63
2022/05/04 05:48:33;;;;;;;19.92;8.35;;;;;;;10.29;59.57;101803.53;5072442;28;20464;-64
2022/05/04 05:51:04;;;;;;;15.52;9.15;;;;;;;10.41;59.26;101797.63;5055956;28;20374;-63
2022/05/04 05:53:29;;;;;;;18.67;8.13;;;;;;;10.47;59.21;101802.69;5074333;28;20519;-63
2022/05/04 05:55:55;;;;;;;17.83;8.25;;;;;;;10.53;59.69;101810.38;5073721;28;20035;-63
2022/05/04 05:58:20;;;;;;;14.77;8.13;;;;;;;10.55;59.57;101807.63;5072604;28;20049;-63
2022/05/04 06:00:47;;;;;;;12.52;8.15;;;;;;;10.58;59.16;101808.34;5073536;28;20064;-63
2022/05/04 06:03:14;;;;;;;16.42;7.18;;;;;;;10.66;58.77;101808.84;5072410;28;20056;-64
2022/05/04 06:05:39;;;;;;;17.58;8.35;;;;;;;10.82;58.46;101803.63;5072383;28;20588;-63
2022/05/04 06:08:05;;;;;;;15.95;8.27;;;;;;;10.92;58.10;101809.38;5070298;28;20123;-63
2022/05/04 06:10:31;;;;;;;18.83;7.88;;;;;;;10.96;57.93;101805.63;5074304;28;20025;-63
2022/05/04 06:12:59;;;;;;;17.52;7.78;;;;;;;11.09;57.83;101813.88;5072854;28;20032;-63
2022/05/04 06:15:25;;;;;;;14.05;8.07;;;;;;;11.19;56.67;101816.94;5073468;28;20364;-63
2022/05/04 06:17:53;;;;;;;14.95;7.75;;;;;;;11.14;56.98;101810.03;5073132;28;20400;-63
2022/05/04 06:20:19;;;;;;;12.25;7.63;;;;;;;11.06;57.41;101811.34;5072435;28;20318;-63
2022/05/04 06:22:46;;;;;;;16.42;7.88;;;;;;;11.27;56.65;101822.75;5073162;28;20059;-63
2022/05/04 06:25:11;;;;;;;18.80;7.97;;;;;;;11.40;56.41;101822.97;5073928;28;20455;-63
2022/05/04 06:27:37;;;;;;;18.38;7.72;;;;;;;11.39;56.10;101832.78;5074295;28;20119;-63
2022/05/04 06:35:31;;;;;;;25.30;7.78;;;;;;;11.60;55.14;101817.50;5073917;28;20078;-64
2022/05/04 06:37:57;;;;;;;16.77;8.00;;;;;;;11.57;55.03;101834.50;5072900;28;20056;-64
2022/05/04 06:40:22;;;;;;;16.42;7.78;;;;;;;11.54;54.97;101831.97;5073772;28;20031;-64
2022/05/04 06:42:48;;;;;;;18.83;7.85;;;;;;;11.64;55.20;101831.50;5072400;28;20032;-64
2022/05/04 06:45:13;;;;;;;16.88;7.55;;;;;;;11.57;54.63;101834.50;5073344;28;20094;-63
2022/05/04 06:47:42;;;;;;;16.65;7.07;;;;;;;11.65;54.33;101839.44;5072539;28;20074;-63
2022/05/04 06:50:08;;;;;;;15.85;7.32;;;;;;;11.66;54.22;101838.50;5071819;28;20083;-63
2022/05/04 06:52:34;;;;;;;16.92;6.95;;;;;;;11.73;54.16;101834.53;5088553;28;20028;-63
2022/05/04 06:54:59;;;;;;;13.68;7.50;;;;;;;11.76;54.84;101839.72;5072177;28;20115;-64
2022/05/04 06:57:27;;;;;;;13.73;7.00;;;;;;;11.82;54.25;101838.53;5072345;28;20185;-63
2022/05/04 06:59:54;;;;;;;22.13;8.02;;;;;;;11.79;53.58;101836.03;5071909;28;20041;-63
2022/05/04 07:02:19;;;;;;;14.98;7.15;;;;;;;11.85;53.51;101830.41;5055646;28;20028;-63
2022/05/04 07:04:45;;;;;;;15.95;7.57;;;;;;;11.83;53.59;101840.28;5072738;28;20023;-63
2022/05/04 07:07:11;;;;;;;15.60;7.00;;;;;;;11.80;53.22;101829.78;5071945;28;20029;-64
2022/05/04 07:09:37;;;;;;;17.40;7.15;;;;;;;11.79;53.64;101828.94;5073143;28;20021;-64
2022/05/04 07:12:05;;;;;;;16.75;7.40;;;;;;;11.96;53.05;101837.84;5073005;28;20029;-63
2022/05/04 07:14:30;;;;;;;17.90;7.05;;;;;;;12.18;52.73;101826.91;5073243;28;20062;-64
2022/05/04 07:16:56;;;;;;;16.23;7.38;;;;;;;12.34;52.77;101825.13;5072308;28;20040;-63
2022/05/04 07:19:22;;;;;;;16.35;7.70;;;;;;;12.46;52.00;101831.59;5038005;28;20064;-63
2022/05/04 07:21:47;;;;;;;16.13;6.97;;;;;;;12.65;51.43;101821.63;5073086;28;20020;-64
2022/05/04 07:24:13;;;;;;;13.70;7.15;;;;;;;12.76;50.90;101817.47;5071944;28;20430;-64
2022/05/04 07:26:40;;;;;;;16.25;7.75;;;;;;;12.85;50.06;101822.28;5073119;28;20033;-63
2022/05/04 07:29:06;;;;;;;16.85;8.02;;;;;;;13.04;50.58;101822.09;5072839;28;20472;-64
2022/05/04 07:31:31;;;;;;;11.15;6.40;;;;;;;13.10;49.58;101819.09;5073244;28;20115;-64
2022/05/04 07:33:57;;;;;;;16.40;7.15;;;;;;;13.11;50.33;101808.28;5072614;28;20020;-63
2022/05/04 07:36:22;;;;;;;14.05;6.63;;;;;;;13.21;49.89;101818.44;5071526;28;20508;-62
2022/05/04 07:38:48;;;;;;;14.90;6.75;;;;;;;13.38;49.23;101815.66;5071167;28;20395;-62
2022/05/04 07:43:59;;;;;;;18.05;7.97;;;;;;;13.57;48.77;101818.13;5073057;28;20557;-63
2022/05/04 07:46:26;;;;;;;13.30;7.38;;;;;;;13.73;48.28;101815.38;5055297;28;20404;-62
2022/05/04 07:48:51;;;;;;;14.50;7.22;;;;;;;13.70;48.58;101821.75;5072054;28;20697;-62
2022/05/04 07:51:17;;;;;;;10.93;7.10;;;;;;;13.84;48.17;101816.44;5072360;28;20087;-63
2022/05/04 07:53:42;;;;;;;13.48;7.70;;;;;;;13.89;47.55;101828.69;5072355;28;20033;-63
2022/05/04 07:56:11;;;;;;;15.50;7.40;;;;;;;13.97;48.11;101829.94;5071181;28;20043;-63
2022/05/04 07:58:36;;;;;;;12.10;7.63;;;;;;;14.16;47.16;101826.97;5070822;28;20047;-63
2022/05/04 08:06:30;;;;;;;18.27;7.80;;;;;;;14.22;47.39;101825.72;5057260;28;20044;-63
2022/05/04 08:08:55;;;;;;;13.75;7.70;;;;;;;14.29;46.84;101835.94;5072285;28;20044;-63
2022/05/04 08:11:20;;;;;;;15.35;8.52;;;;;;;14.50;46.92;101836.41;5072264;28;20029;-63
2022/05/04 08:13:46;;;;;;;12.80;7.80;;;;;;;14.71;47.59;101833.34;5071984;28;20037;-63
2022/05/04 08:16:13;;;;;;;17.75;9.32;;;;;;;14.65;46.26;101836.41;5072085;28;20111;-63
2022/05/04 08:18:42;;;;;;;13.88;8.38;;;;;;;14.71;47.04;101819.94;5070377;28;20483;-63
2022/05/04 08:21:08;;;;;;;15.27;8.73;;;;;;;14.75;46.11;101818.78;5087488;28;20382;-63
2022/05/04 08:23:34;;;;;;;13.80;8.40;;;;;;;14.94;46.79;101827.34;5071975;28;20442;-63
2022/05/04 08:26:00;;;;;;;14.73;7.93;;;;;;;15.07;45.86;101821.16;5072008;28;20062;-63
2022/05/04 08:28:26;;;;;;;14.88;8.10;;;;;;;15.19;44.97;101821.19;5070887;28;20028;-63
2022/05/04 08:30:52;;;;;;;15.57;8.65;;;;;;;15.12;44.97;101830.63;5071837;28;20032;-63
2022/05/04 08:33:18;;;;;;;14.10;8.48;;;;;;;15.19;46.00;101834.59;5071738;28;20036;-63
2022/05/04 08:35:44;;;;;;;14.05;7.72;;;;;;;15.32;46.02;101833.78;5053337;28;20029;-63
2022/05/04 08:38:09;;;;;;;15.07;8.75;;;;;;;15.44;45.42;101838.31;5071742;28;20029;-63
2022/05/04 08:40:35;;;;;;;12.60;8.70;;;;;;;15.60;44.75;101833.63;5053867;28;20095;-63
2022/05/04 08:43:05;;;;;;;15.75;8.60;;;;;;;15.74;43.95;101832.72;5070917;28;20028;-63
2022/05/04 08:45:35;;;;;;;16.15;8.25;;;;;;;15.92;43.98;101835.94;5087228;28;20023;-63
2022/05/04 08:48:02;;;;;;;15.75;9.85;;;;;;;15.89;43.01;101830.78;5071648;28;20024;-63
2022/05/04 08:50:28;;;;;;;15.27;9.15;;;;;;;16.04;43.38;101828.84;5070984;28;20020;-63
2022/05/04 08:52:54;;;;;;;15.98;9.23;;;;;;;15.99;42.89;101823.81;5071053;28;20502;-63
2022/05/04 08:55:21;;;;;;;13.23;8.70;;;;;;;16.18;43.44;101818.00;5070490;28;20032;-63
2022/05/04 08:57:47;;;;;;;13.00;9.35;;;;;;;16.18;43.45;101819.81;5071684;28;20031;-63
2022/05/04 09:00:13;;;;;;;13.70;8.85;;;;;;;16.20;43.61;101824.09;5071046;28;20048;-63
2022/05/04 09:02:39;;;;;;;12.00;8.65;;;;;;;16.12;41.99;101816.63;5071567;28;20498;-63
2022/05/04 09:05:14;;;;;;;10.93;8.50;;;;;;;16.17;42.16;101816.28;5070607;28;20032;-63
2022/05/04 09:07:40;;;;;;;14.38;8.95;;;;;;;16.20;42.65;101824.09;5071638;28;20052;-63
2022/05/04 09:10:14;;;;;;;16.58;8.43;;;;;;;16.28;42.75;101815.50;5071324;28;20480;-63
2022/05/04 09:12:42;;;;;;;14.00;8.45;;;;;;;16.42;42.46;101815.38;5071522;28;20032;-63
2022/05/04 09:15:17;;;;;;;14.73;8.50;;;;;;;16.39;42.73;101818.28;5070881;28;20032;-63
2022/05/04 09:17:42;;;;;;;14.25;8.65;;;;;;;16.50;42.39;101823.75;5075614;28;20360;-63
2022/05/04 09:22:54;;;;;;;12.70;8.52;;;;;;;16.91;41.84;101817.19;5075516;28;20035;-63
2022/05/04 09:25:20;;;;;;;17.27;9.48;;;;;;;16.87;41.60;101814.84;5074071;28;20025;-63
2022/05/04 09:27:49;;;;;;;15.68;8.85;;;;;;;16.95;40.69;101810.63;5074126;28;20029;-63
2022/05/04 09:30:16;;;;;;;15.07;8.35;;;;;;;17.08;40.96;101797.09;5075098;28;20070;-63
2022/05/04 09:32:45;;;;;;;11.20;8.30;;;;;;;16.95;39.08;101805.25;5090782;28;20064;-63
2022/05/04 09:35:14;;;;;;;13.07;8.45;;;;;;;16.73;39.08;101810.44;5056714;28;20040;-63
2022/05/04 09:45:56;;;;;;;14.98;9.05;;;;;;;17.42;41.38;101794.56;5075335;28;20058;-63
2022/05/04 09:48:32;;;;;;;15.70;9.63;;;;;;;17.35;40.77;101804.03;5074768;28;20035;-64
2022/05/04 09:51:05;;;;;;;15.93;8.73;;;;;;;17.38;40.51;101802.00;5074931;28;20048;-64
2022/05/04 09:53:32;;;;;;;13.25;7.80;;;;;;;17.41;40.03;101807.16;5090493;28;20116;-63
2022/05/04 09:55:58;;;;;;;14.35;8.75;;;;;;;17.65;39.68;101799.00;5075047;28;20099;-64
2022/05/04 09:58:27;;;;;;;13.65;8.00;;;;;;;17.74;39.92;101796.59;5074748;28;20099;-64
2022/05/04 10:00:53;;;;;;;14.23;8.13;;;;;;;17.96;38.42;101795.78;5074485;28;20072;-63
2022/05/04 10:03:20;;;;;;;11.95;8.05;;;;;;;17.82;39.08;101786.94;5074331;28;20024;-63
2022/05/04 10:05:47;;;;;;;15.68;9.05;;;;;;;17.92;37.66;101790.63;5074411;28;20382;-63
2022/05/04 10:08:12;;;;;;;11.68;7.38;;;;;;;18.11;38.81;101795.41;5074547;28;20391;-63
2022/05/04 10:10:39;;;;;;;17.15;8.82;;;;;;;17.99;37.41;101799.06;5074672;28;20035;-63
2022/05/04 10:13:06;;;;;;;12.25;7.20;;;;;;;18.25;38.17;101788.06;5074494;28;20028;-64
2022/05/04 10:15:34;;;;;;;12.30;7.90;;;;;;;18.50;37.84;101795.88;5074094;28;20032;-64
2022/05/04 10:18:07;;;;;;;14.70;9.07;;;;;;;18.38;36.77;101794.16;5073248;28;20475;-63
2022/05/04 10:20:44;;;;;;;12.95;8.52;;;;;;;18.58;37.64;101785.31;5072611;28;20024;-63
2022/05/04 10:23:19;;;;;;;16.25;8.25;;;;;;;18.55;37.19;101788.25;5074337;28;20029;-64
2022/05/04 10:25:44;;;;;;;10.98;7.78;;;;;;;18.83;37.11;101792.28;5074192;28;20028;-63
2022/05/04 10:28:15;;;;;;;15.05;8.10;;;;;;;18.99;36.13;101789.13;5072202;28;20025;-64
2022/05/04 10:30:57;;;;;;;13.05;7.25;;;;;;;19.19;36.80;101784.78;5072797;28;20044;-64
2022/05/04 10:33:32;;;;;;;12.60;7.60;;;;;;;19.20;36.46;101791.88;5074110;28;20025;-64
2022/05/04 10:36:16;;;;;;;16.83;8.35;;;;;;;19.02;36.19;101785.34;5072900;28;20039;-63
2022/05/04 10:38:45;;;;;;;16.95;8.07;;;;;;;19.15;36.45;101775.25;5073909;28;20063;-64
2022/05/04 10:41:13;;;;;;;14.43;7.38;;;;;;;19.29;36.10;101780.31;5073916;28;20024;-63
2022/05/04 10:43:45;;;;;;;11.10;7.53;;;;;;;19.41;35.12;101785.63;5073900;28;20384;-64
2022/05/04 10:46:17;;;;;;;12.75;8.55;;;;;;;19.35;35.80;101781.59;5072641;28;20103;-63
2022/05/04 10:49:05;;;;;;;14.00;7.90;;;;;;;19.44;36.28;101790.75;5089004;28;20487;-63
2022/05/04 10:51:35;;;;;;;16.77;7.50;;;;;;;19.39;34.98;101783.09;5073919;28;20107;-64
2022/05/04 10:54:12;;;;;;;11.15;7.13;;;;;;;19.69;35.00;101784.16;5073591;28;20499;-64
2022/05/04 10:56:43;;;;;;;10.90;6.43;;;;;;;19.63;34.53;101780.09;5073922;28;20016;-64
2022/05/04 10:59:09;;;;;;;13.25;7.03;;;;;;;19.59;34.41;101772.41;5073240;28;20041;-64
2022/05/04 11:01:37;;;;;;;11.75;7.00;;;;;;;19.97;33.97;101771.78;5073624;28;20025;-64
2022/05/04 11:04:13;;;;;;;14.60;8.80;;;;;;;20.13;34.33;101771.28;5073129;28;20487;-64
2022/05/04 11:07:02;;;;;;;12.70;8.02;;;;;;;20.42;33.99;101771.38;5073716;28;20275;-64
2022/05/04 11:09:43;;;;;;;11.27;7.28;;;;;;;20.43;33.36;101760.41;5073682;28;20028;-64
2022/05/04 11:12:11;;;;;;;12.82;7.38;;;;;;;20.32;32.97;101765.94;5056278;28;20468;-64
2022/05/04 11:14:37;;;;;;;11.43;7.45;;;;;;;20.60;33.14;101763.50;5071898;28;20107;-64
2022/05/04 11:17:09;;;;;;;14.55;7.43;;;;;;;21.06;32.47;101761.94;5073472;28;20020;-64
2022/05/04 11:19:35;;;;;;;14.73;7.82;;;;;;;21.11;33.10;101762.38;5072795;28;20029;-64
2022/05/04 11:22:01;;;;;;;11.48;7.90;;;;;;;21.19;33.15;101748.97;5071944;28;20031;-64
2022/05/04 11:24:27;;;;;;;13.48;7.70;;;;;;;21.25;32.00;101758.38;5071983;28;20476;-64
2022/05/04 11:26:54;;;;;;;14.18;8.68;;;;;;;21.41;33.14;101733.44;5073233;28;20033;-64
2022/05/04 11:29:27;;;;;;;14.40;8.02;;;;;;;21.36;32.66;101758.25;5072827;28;20020;-64
2022/05/04 11:31:56;;;;;;;12.25;8.82;;;;;;;21.44;32.68;101752.97;5073381;28;20025;-64
2022/05/04 11:34:24;;;;;;;12.20;8.02;;;;;;;21.99;30.82;101753.06;5071223;28;20115;-64
2022/05/04 11:36:52;;;;;;;12.63;7.43;;;;;;;22.26;31.40;101747.84;5072956;28;20036;-64
2022/05/04 11:39:21;;;;;;;13.68;8.43;;;;;;;22.53;32.32;101745.13;5071794;28;20131;-64
2022/05/04 11:41:47;;;;;;;13.95;7.97;;;;;;;22.72;30.33;101745.97;5072888;28;20097;-64
2022/05/04 11:44:21;;;;;;;11.93;8.05;;;;;;;22.78;30.18;101748.91;5072396;28;20395;-65
2022/05/04 11:46:51;;;;;;;15.68;7.75;;;;;;;23.52;28.79;101738.69;5072910;28;20021;-64
2022/05/04 11:49:19;;;;;;;11.70;7.50;;;;;;;24.10;28.16;101735.31;5070749;28;20503;-64
2022/05/04 11:51:47;;;;;;;14.20;7.78;;;;;;;24.60;27.29;101726.31;5054801;28;20039;-65
2022/05/04 11:54:12;;;;;;;10.75;7.38;;;;;;;25.12;26.28;101725.16;5072443;28;20036;-65
2022/05/04 11:56:38;;;;;;;14.02;7.47;;;;;;;25.59;26.45;101722.56;5072553;28;20071;-65
2022/05/04 11:59:07;;;;;;;15.30;7.90;;;;;;;25.81;25.17;101717.38;5071810;28;20099;-65